Blue Diamond, NV (89004)

2:04 AM PST on February 11, 2016 (GMT -0800)
MesoWest | | Change Station
CLOSE
Current Station
Personal Weather Station
Location: Blue Diamond, NV
Elevation: 4838 ft
Nearby Weather Stations

Elev 4838 ft 36.08 °N, 115.39 °W | Updated 3 hours ago

Clear
Clear
0.0 °F
Feels Like -19 °F
N
14.0
Wind Variable Wind from NNE
Gusts 0.0 mph

Today
High -- | Low -- °F
--% Chance of Precip.
Yesterday
High -- | Low -- °F
Precip. -- in
Pressure 30.17 in
Visibility 10.0 miles
Clouds Clear
Windchill -19 °F
Dew Point Not available.
Humidity Not available.
Rainfall in
Snow Depth Not available.
6:33 AM 5:18 PM
Waxing Crescent, 11% visible
METAR KLAS 110956Z 22004KT 10SM CLR 10/M03 A3020 RMK AO2 SLP217 T01001028
Pressure 30.17 in
Visibility 10.0 miles
Clouds Clear
Windchill -19 °F
Dew Point Not available.
Humidity Not available.
Rainfall in
Snow Depth Not available.
6:33 AM 5:18 PM
Waxing Crescent, 11% visible
METAR KLAS 110956Z 22004KT 10SM CLR 10/M03 A3020 RMK AO2 SLP217 T01001028

10-Day Weather Forecast

Almanac

Astronomy

Feb. 11, 2016 Rise Set
Actual Time
Civil Twilight
Nautical Twilight
Astronomical Twilight
Moon
Length of Visible Light
Length of Day
Tomorrow will be .
, % of the Moon is Illuminated

Today's Extremes

State Highs State Lows

Community

WunderPhotos

Upload Photos

1,892,030 photos uploaded!

WunderBlog® & News

Nearby

Air Quality

  Air Quality AQ Index Pollutant
Not available.

Snow Depth

Station Depth Elevation

Earthquake Activity

City Distance Mag. Time & Date
Minimum magnitude displayed is 2.5.

Coastal Water Temperatures

Place Temperature

Stations

Nearby Weather Stations

Station Location Temp. Windchill Dew Point Humidity Wind Precip. Elev Updated Type
                   

Watches & Warnings

There are currently no watches in effect.